Time;durP1;ratioP1;P1;durP2;ratioP2;P2;SDS_P1;SDS_P2;PMS_P1;PMS_P2;Temp;Humidity;BMP_temperature;BMP_pressure;BME280_temperature;BME280_humidity;BME280_pressure;Samples;Min_cycle;Max_cycle;Signal;HPM_P1;HPM_P2
2021/04/30 00:00:37;;;;;;;15.05;10.68;;;;;;;12.84;59.91;99420.01;128226;1101;22341;-74
2021/04/30 00:03:16;;;;;;;13.23;9.85;;;;;;;12.80;59.78;99419.60;128284;1097;24453;-74
2021/04/30 00:05:45;;;;;;;13.08;9.93;;;;;;;12.81;60.14;99417.77;128579;1094;22357;-75
2021/04/30 00:08:14;;;;;;;9.35;8.05;;;;;;;12.81;59.94;99417.77;128542;1095;22383;-75
2021/04/30 00:10:43;;;;;;;11.15;8.53;;;;;;;12.82;60.01;99416.73;128583;1098;22333;-75
2021/04/30 00:13:12;;;;;;;14.98;8.38;;;;;;;12.83;59.88;99421.00;128553;1098;22355;-75
2021/04/30 00:15:41;;;;;;;11.83;7.68;;;;;;;12.81;59.70;99425.72;128576;1095;22351;-75
2021/04/30 00:18:10;;;;;;;10.70;8.70;;;;;;;12.79;59.43;99431.20;128581;1095;24217;-75
2021/04/30 00:20:42;;;;;;;13.85;9.03;;;;;;;12.76;59.26;99426.31;128210;1098;22419;-74
2021/04/30 00:23:12;;;;;;;13.20;8.03;;;;;;;12.72;59.36;99433.85;128367;1101;22345;-76
2021/04/30 00:25:42;;;;;;;12.63;8.40;;;;;;;12.68;59.28;99435.28;128251;1097;22513;-76
2021/04/30 00:28:10;;;;;;;10.80;8.20;;;;;;;12.63;59.03;99429.80;128187;1101;22401;-76
2021/04/30 00:30:40;;;;;;;10.75;9.00;;;;;;;12.60;59.44;99438.16;128248;1097;24607;-73
2021/04/30 00:33:09;;;;;;;12.53;9.50;;;;;;;12.57;59.36;99440.39;128281;1101;22348;-76
2021/04/30 00:35:38;;;;;;;12.25;10.18;;;;;;;12.53;59.48;99439.14;128277;1101;22343;-75
2021/04/30 00:38:07;;;;;;;13.95;10.48;;;;;;;12.50;59.35;99443.03;128260;1098;22803;-76
2021/04/30 00:40:37;;;;;;;16.30;9.88;;;;;;;12.48;59.42;99453.00;128625;1095;22330;-75
2021/04/30 00:43:06;;;;;;;13.78;10.43;;;;;;;12.43;59.17;99450.97;128624;1098;22333;-75
2021/04/30 00:45:34;;;;;;;13.58;10.88;;;;;;;12.35;59.38;99445.85;128235;1098;24453;-76
2021/04/30 00:48:04;;;;;;;12.78;10.70;;;;;;;12.28;59.44;99445.03;128272;1100;23120;-75
2021/04/30 00:50:33;;;;;;;14.03;10.63;;;;;;;12.25;59.89;99446.23;128249;1098;24993;-75
2021/04/30 00:53:02;;;;;;;13.55;9.45;;;;;;;12.22;59.88;99449.28;128238;1100;22354;-75
2021/04/30 00:55:30;;;;;;;11.23;9.65;;;;;;;12.19;60.07;99456.81;128239;1098;24578;-75
2021/04/30 00:58:01;;;;;;;13.88;10.70;;;;;;;12.18;60.08;99460.48;128251;1101;22351;-75
2021/04/30 01:00:35;;;;;;;16.70;13.10;;;;;;;12.14;60.07;99462.72;128295;1100;22402;-76
2021/04/30 01:03:09;;;;;;;21.48;17.60;;;;;;;12.01;60.07;99471.44;128314;1098;22334;-76
2021/04/30 01:05:39;;;;;;;25.00;20.43;;;;;;;11.84;60.46;99467.50;128628;1095;22441;-76
2021/04/30 01:08:07;;;;;;;24.43;21.83;;;;;;;11.72;61.00;99463.75;128584;1098;22343;-74
2021/04/30 01:10:36;;;;;;;26.50;19.93;;;;;;;11.63;61.46;99471.05;128617;1098;22383;-75
2021/04/30 01:13:05;;;;;;;21.05;18.65;;;;;;;11.58;61.39;99465.52;128644;1098;22431;-75
2021/04/30 01:15:34;;;;;;;21.68;17.78;;;;;;;11.52;62.24;99458.36;128605;1098;22350;-76
2021/04/30 01:18:02;;;;;;;24.75;18.70;;;;;;;11.48;62.82;99470.34;128612;1098;22333;-74
2021/04/30 01:20:31;;;;;;;17.85;15.98;;;;;;;11.45;62.78;99471.55;128645;1095;22345;-75
2021/04/30 01:23:00;;;;;;;20.10;16.25;;;;;;;11.42;62.92;99477.22;128611;1098;22348;-76
2021/04/30 01:25:35;;;;;;;19.70;15.78;;;;;;;11.39;63.10;99477.61;128604;1095;22328;-75
2021/04/30 01:28:06;;;;;;;17.75;15.73;;;;;;;11.34;62.87;99476.58;128660;1095;22433;-75
2021/04/30 01:30:38;;;;;;;16.10;14.40;;;;;;;11.27;62.89;99479.18;128712;1098;22346;-75
2021/04/30 01:33:22;;;;;;;18.18;15.00;;;;;;;11.22;63.12;99479.73;128747;1095;22433;-75
2021/04/30 01:35:50;;;;;;;15.95;14.03;;;;;;;11.14;63.47;99479.90;128669;1094;24233;-75
2021/04/30 01:38:19;;;;;;;16.05;13.73;;;;;;;11.10;63.81;99478.66;128639;1095;24212;-75
2021/04/30 01:40:47;;;;;;;18.75;15.50;;;;;;;11.06;63.83;99480.88;128605;1095;25241;-76
2021/04/30 01:43:22;;;;;;;19.50;15.40;;;;;;;11.02;64.32;99478.78;128624;1098;22330;-77
2021/04/30 01:45:56;;;;;;;16.23;14.58;;;;;;;10.98;64.30;99473.06;128604;1098;22344;-76
2021/04/30 01:48:29;;;;;;;21.00;17.80;;;;;;;10.92;64.55;99489.69;128385;1098;22345;-75
2021/04/30 01:51:00;;;;;;;19.40;15.53;;;;;;;10.87;64.62;99484.17;128576;1095;22327;-75
2021/04/30 01:53:32;;;;;;;22.55;16.88;;;;;;;10.81;64.79;99480.45;128757;1098;22348;-77
2021/04/30 01:56:07;;;;;;;20.68;16.75;;;;;;;10.76;64.91;99487.30;128643;1095;22333;-77
2021/04/30 01:58:38;;;;;;;19.85;17.00;;;;;;;10.67;65.22;99489.28;128347;1099;22349;-74
2021/04/30 02:01:07;;;;;;;19.23;16.58;;;;;;;10.60;65.86;99491.86;128306;1098;22331;-75
2021/04/30 02:03:36;;;;;;;20.10;17.08;;;;;;;10.56;65.75;99489.77;128289;1099;22334;-75
2021/04/30 02:06:05;;;;;;;19.15;17.13;;;;;;;10.49;66.25;99489.70;128377;1099;22355;-76
2021/04/30 02:08:33;;;;;;;19.28;16.70;;;;;;;10.46;66.26;99490.10;128016;1101;22449;-76
2021/04/30 02:11:04;;;;;;;22.50;17.30;;;;;;;10.46;66.58;99483.98;128180;1101;22431;-75
2021/04/30 02:13:33;;;;;;;19.33;16.00;;;;;;;10.47;66.75;99490.92;127938;1102;22365;-76
2021/04/30 02:16:02;;;;;;;20.30;16.58;;;;;;;10.49;66.91;99499.45;128280;1100;22361;-74
2021/04/30 02:18:31;;;;;;;22.23;18.23;;;;;;;10.48;66.34;99493.36;128253;1098;22801;-76
2021/04/30 02:20:59;;;;;;;19.18;16.53;;;;;;;10.50;67.15;99496.64;128310;1098;24463;-75
2021/04/30 02:23:28;;;;;;;18.33;15.30;;;;;;;10.53;67.21;99495.42;127994;1100;24485;-75
2021/04/30 02:25:57;;;;;;;17.08;15.28;;;;;;;10.55;67.10;99496.06;128025;1101;22378;-75
2021/04/30 02:28:25;;;;;;;19.18;15.03;;;;;;;10.57;67.10;99501.98;128262;1101;22339;-75
2021/04/30 02:30:54;;;;;;;18.05;14.88;;;;;;;10.58;67.24;99495.69;128261;1101;22401;-75
2021/04/30 02:33:23;;;;;;;19.90;15.85;;;;;;;10.59;67.38;99503.41;128211;1101;22343;-75
2021/04/30 02:35:51;;;;;;;20.20;15.30;;;;;;;10.60;66.94;99506.89;128262;1101;22446;-75
2021/04/30 02:38:20;;;;;;;19.43;16.23;;;;;;;10.57;66.89;99500.16;128258;1101;22338;-75
2021/04/30 02:40:52;;;;;;;16.50;14.73;;;;;;;10.55;67.13;99504.80;128224;1098;22358;-74
2021/04/30 02:43:22;;;;;;;;;;;;;;;10.49;67.01;99510.02;128582;1095;24486;-75
2021/04/30 02:45:51;;;;;;;15.00;13.43;;;;;;;10.46;66.97;99511.23;128375;1097;21260;-75
2021/04/30 02:48:37;;;;;;;24.53;19.80;;;;;;;10.50;67.15;99509.03;128241;1101;22330;-75
2021/04/30 02:51:10;;;;;;;12.15;10.23;;;;;;;10.51;67.08;99508.02;128203;1101;22393;-76
2021/04/30 02:53:39;;;;;;;14.63;10.20;;;;;;;10.52;66.89;99505.17;128219;1101;22328;-77
2021/04/30 02:56:08;;;;;;;12.53;9.03;;;;;;;10.55;66.75;99515.36;128243;1101;22334;-75
2021/04/30 02:58:37;;;;;;;13.60;10.53;;;;;;;10.56;66.33;99511.73;128220;1101;22342;-76
2021/04/30 03:01:05;;;;;;;13.37;9.70;;;;;;;10.57;66.17;99501.98;128197;1101;22413;-76
2021/04/30 03:03:34;;;;;;;13.15;10.20;;;;;;;10.56;66.09;99502.97;128284;1098;22914;-76
2021/04/30 03:06:03;;;;;;;13.73;10.65;;;;;;;10.53;65.99;99506.83;128598;1098;22384;-76
2021/04/30 03:08:31;;;;;;;15.90;9.68;;;;;;;10.52;66.08;99505.17;128333;1099;22342;-76
2021/04/30 03:11:00;;;;;;;14.15;8.90;;;;;;;10.52;66.04;99512.28;128593;1098;22327;-77
2021/04/30 03:13:29;;;;;;;11.18;9.23;;;;;;;10.52;66.25;99510.45;128245;1101;22356;-76
2021/04/30 03:15:57;;;;;;;12.48;8.15;;;;;;;10.53;65.90;99511.27;128279;1098;22379;-75
2021/04/30 03:18:26;;;;;;;9.33;8.23;;;;;;;10.52;66.01;99517.56;128262;1096;24479;-76
2021/04/30 03:20:55;;;;;;;11.85;8.13;;;;;;;10.51;65.98;99523.86;128284;1098;22869;-76
2021/04/30 03:23:24;;;;;;;10.50;7.88;;;;;;;10.54;66.11;99520.84;128322;1099;22345;-74
2021/04/30 03:25:53;;;;;;;8.25;7.05;;;;;;;10.56;66.06;99524.09;128307;1098;22459;-76
2021/04/30 03:28:24;;;;;;;8.68;7.50;;;;;;;10.58;65.98;99530.84;128339;1098;25001;-74
2021/04/30 03:30:53;;;;;;;;;;;;;;;10.54;66.08;99534.86;128310;1097;22345;-74
2021/04/30 03:33:22;;;;;;;9.08;7.23;;;;;;;10.48;66.10;99535.61;128586;1098;21347;-74
2021/04/30 03:35:50;;;;;;;12.67;7.40;;;;;;;10.51;65.96;99542.34;128576;1098;22349;-75
2021/04/30 03:38:19;;;;;;;11.33;7.05;;;;;;;10.52;66.14;99546.61;128603;1097;22345;-75
2021/04/30 03:40:48;;;;;;;10.08;7.23;;;;;;;10.54;65.57;99560.45;128237;1101;22375;-75
2021/04/30 03:43:17;;;;;;;8.03;7.23;;;;;;;10.58;65.89;99564.35;128235;1098;22355;-75
2021/04/30 03:45:45;;;;;;;9.15;7.30;;;;;;;10.58;65.63;99559.89;128212;1098;22367;-76
2021/04/30 03:48:14;;;;;;;10.75;8.10;;;;;;;10.58;65.52;99566.99;128201;1101;22364;-74
2021/04/30 03:50:43;;;;;;;11.90;7.33;;;;;;;10.55;65.49;99570.82;128212;1101;22354;-74
2021/04/30 03:53:12;;;;;;;11.43;7.70;;;;;;;10.53;65.39;99572.00;128269;1100;22364;-74
2021/04/30 03:55:41;;;;;;;9.23;6.85;;;;;;;10.53;65.44;99574.64;128186;1101;22372;-74
2021/04/30 03:58:09;;;;;;;9.10;7.50;;;;;;;10.53;65.16;99583.41;128197;1098;22537;-74
2021/04/30 04:00:38;;;;;;;8.73;7.80;;;;;;;10.52;65.60;99580.94;128599;1098;22434;-75
2021/04/30 04:03:06;;;;;;;9.58;7.95;;;;;;;10.52;64.81;99583.58;128552;1095;22345;-75
2021/04/30 04:05:35;;;;;;;11.03;8.80;;;;;;;10.49;64.68;99589.23;128575;1098;22346;-76
2021/04/30 04:08:08;;;;;;;8.80;7.90;;;;;;;10.44;64.62;99586.34;128574;1098;22451;-74
2021/04/30 04:10:37;;;;;;;8.33;7.53;;;;;;;10.41;64.44;99598.09;128623;1098;22366;-74
2021/04/30 04:13:21;;;;;;;8.83;7.45;;;;;;;10.33;64.15;99598.20;128575;1094;24987;-75
2021/04/30 04:15:52;;;;;;;10.98;7.60;;;;;;;10.26;64.46;99599.92;128668;1098;23099;-75
2021/04/30 04:18:25;;;;;;;10.10;7.30;;;;;;;10.23;64.67;99600.25;128613;1097;22363;-75
2021/04/30 04:20:54;;;;;;;8.93;8.00;;;;;;;10.18;64.78;99611.38;128687;1098;22328;-75
2021/04/30 04:23:23;;;;;;;9.55;8.45;;;;;;;10.22;64.90;99614.46;128567;1094;22366;-75
2021/04/30 04:25:52;;;;;;;9.73;7.63;;;;;;;10.26;65.04;99613.12;128634;1098;22334;-75
2021/04/30 04:28:21;;;;;;;9.03;7.85;;;;;;;10.34;64.93;99619.13;128618;1098;22354;-74
2021/04/30 04:30:52;;;;;;;9.83;7.83;;;;;;;10.46;64.97;99627.41;128582;1097;22756;-73
2021/04/30 04:33:21;;;;;;;9.50;8.23;;;;;;;10.60;65.09;99629.20;128312;1099;22339;-75
2021/04/30 04:35:49;;;;;;;11.20;7.75;;;;;;;10.70;64.61;99633.38;128606;1098;22338;-75
2021/04/30 04:38:18;;;;;;;12.10;7.97;;;;;;;10.80;64.31;99634.70;128576;1096;22339;-75
2021/04/30 04:40:46;;;;;;;9.78;7.93;;;;;;;10.90;63.91;99631.77;128548;1096;24460;-75
2021/04/30 04:43:15;;;;;;;10.98;8.50;;;;;;;10.98;63.53;99646.67;128597;1098;22334;-74
2021/04/30 04:45:46;;;;;;;9.98;8.98;;;;;;;11.06;63.30;99638.61;128188;1101;22459;-74
2021/04/30 04:48:14;;;;;;;10.05;8.73;;;;;;;11.15;62.91;99648.06;128207;1101;22873;-75
2021/04/30 04:50:43;;;;;;;11.68;9.30;;;;;;;11.21;62.53;99649.95;128241;1098;24951;-73
2021/04/30 04:53:25;;;;;;;9.53;8.63;;;;;;;11.33;62.20;99662.66;128294;1096;24493;-75
2021/04/30 04:56:13;;;;;;;11.30;10.15;;;;;;;11.46;62.13;99655.69;128295;1098;22346;-75
2021/04/30 04:58:42;;;;;;;11.83;10.63;;;;;;;11.63;61.92;99664.17;128205;1097;25748;-74
2021/04/30 05:01:11;;;;;;;11.00;10.00;;;;;;;11.80;61.52;99667.35;128235;1098;22430;-75
2021/04/30 05:03:39;;;;;;;11.40;10.40;;;;;;;11.97;60.93;99681.14;128574;1095;22344;-75
2021/04/30 05:06:09;;;;;;;14.90;10.18;;;;;;;12.11;60.53;99679.40;128662;1094;24322;-75
2021/04/30 05:08:37;;;;;;;12.40;11.13;;;;;;;12.20;59.62;99696.78;128529;1098;22336;-74
2021/04/30 05:11:06;;;;;;;12.40;11.40;;;;;;;12.24;59.00;99684.78;128253;1099;22334;-74
2021/04/30 05:13:35;;;;;;;12.78;11.68;;;;;;;12.32;58.21;99684.61;128600;1098;22412;-75
2021/04/30 05:16:04;;;;;;;12.50;11.28;;;;;;;12.37;57.97;99691.98;128212;1098;22347;-75
2021/04/30 05:18:33;;;;;;;13.03;11.78;;;;;;;12.41;57.27;99701.17;128247;1099;22332;-74
2021/04/30 05:21:02;;;;;;;13.38;12.10;;;;;;;12.56;57.08;99703.67;128250;1098;23787;-74
2021/04/30 05:23:31;;;;;;;12.40;11.38;;;;;;;12.77;56.15;99711.54;128256;1098;22336;-75
2021/04/30 05:25:59;;;;;;;12.53;11.45;;;;;;;12.97;55.35;99703.66;128260;1097;23384;-75
2021/04/30 05:28:28;;;;;;;11.20;10.30;;;;;;;13.12;54.48;99712.25;128626;1098;22564;-75
2021/04/30 05:30:57;;;;;;;13.68;12.38;;;;;;;13.30;54.03;99722.35;128599;1098;22341;-74
2021/04/30 05:33:26;;;;;;;12.73;11.43;;;;;;;13.44;52.81;99722.38;128282;1098;23781;-75
2021/04/30 05:35:55;;;;;;;11.78;10.78;;;;;;;13.59;52.62;99731.77;128264;1098;22348;-76
2021/04/30 05:38:23;;;;;;;11.85;10.75;;;;;;;13.71;51.47;99728.53;128255;1100;22323;-76
2021/04/30 05:40:53;;;;;;;11.90;10.80;;;;;;;13.87;51.12;99738.75;128272;1098;22346;-74
2021/04/30 05:43:21;;;;;;;12.40;11.40;;;;;;;14.06;50.38;99740.59;128237;1101;22373;-75
2021/04/30 05:45:51;;;;;;;11.98;10.98;;;;;;;14.25;49.83;99740.76;128194;1101;22371;-75
2021/04/30 05:48:19;;;;;;;11.20;10.30;;;;;;;14.41;49.67;99740.33;127933;1104;22384;-75
2021/04/30 05:50:48;;;;;;;12.28;11.28;;;;;;;14.70;49.07;99746.23;127889;1101;24212;-75
2021/04/30 05:53:16;;;;;;;12.78;11.75;;;;;;;14.91;48.18;99740.62;128163;1101;22376;-76
2021/04/30 05:55:45;;;;;;;14.40;11.63;;;;;;;15.08;47.74;99750.78;128181;1101;22377;-74
2021/04/30 05:58:14;;;;;;;13.25;12.25;;;;;;;15.10;46.42;99754.87;128119;1101;22480;-75
2021/04/30 06:00:42;;;;;;;14.50;13.25;;;;;;;15.17;46.38;99746.86;127957;1098;22350;-75
2021/04/30 06:03:11;;;;;;;14.37;13.07;;;;;;;15.29;46.97;99739.81;128222;1101;22326;-75
2021/04/30 06:05:40;;;;;;;14.68;13.45;;;;;;;15.48;46.04;99748.72;128237;1098;22475;-74
2021/04/30 06:08:09;;;;;;;14.00;12.80;;;;;;;15.55;45.81;99752.15;128565;1095;24469;-74
2021/04/30 06:10:37;;;;;;;15.15;13.73;;;;;;;15.63;45.23;99751.91;128586;1095;22325;-76
2021/04/30 06:13:07;;;;;;;12.40;11.30;;;;;;;15.87;45.42;99749.52;128633;1097;22342;-76
2021/04/30 06:15:35;;;;;;;12.98;11.63;;;;;;;16.07;44.24;99741.36;128697;1096;22330;-77
2021/04/30 06:18:04;;;;;;;14.00;12.55;;;;;;;16.16;44.08;99754.19;128652;1095;22388;-77
2021/04/30 06:20:33;;;;;;;12.73;11.70;;;;;;;16.38;43.87;99753.77;128613;1097;22325;-77
2021/04/30 06:23:02;;;;;;;13.00;12.00;;;;;;;16.42;43.26;99763.76;128288;1097;24487;-78
2021/04/30 06:25:31;;;;;;;13.50;12.05;;;;;;;16.58;43.09;99766.90;128198;1101;22363;-78
2021/04/30 06:27:59;;;;;;;11.70;10.80;;;;;;;16.75;42.90;99777.83;128007;1099;24512;-79
2021/04/30 06:30:28;;;;;;;14.40;13.10;;;;;;;16.87;42.39;99760.05;127943;1104;22369;-79
2021/04/30 06:32:57;;;;;;;13.30;12.20;;;;;;;16.98;42.33;99763.81;127942;1101;22383;-77
2021/04/30 06:35:26;;;;;;;12.73;11.60;;;;;;;17.03;41.28;99771.98;127939;1104;22388;-79
2021/04/30 06:37:55;;;;;;;11.55;10.55;;;;;;;16.97;41.69;99775.53;127959;1104;22378;-77
2021/04/30 06:40:24;;;;;;;13.48;10.88;;;;;;;17.04;41.34;99771.74;127948;1102;22379;-77
2021/04/30 06:42:53;;;;;;;10.60;9.78;;;;;;;16.96;40.86;99781.89;128150;1101;22363;-76
2021/04/30 06:45:22;;;;;;;11.30;10.35;;;;;;;16.96;41.10;99777.39;128294;1100;22343;-77
2021/04/30 06:47:51;;;;;;;11.68;10.40;;;;;;;17.00;40.77;99778.57;128217;1098;22430;-77
2021/04/30 06:50:20;;;;;;;11.78;10.65;;;;;;;16.99;40.85;99786.78;128603;1098;22327;-78
2021/04/30 06:52:48;;;;;;;12.03;10.78;;;;;;;17.05;39.68;99767.22;128612;1098;22459;-77
2021/04/30 06:55:17;;;;;;;13.25;11.90;;;;;;;17.21;40.41;99784.47;128592;1097;22340;-77
2021/04/30 06:57:46;;;;;;;13.70;11.45;;;;;;;17.13;39.15;99774.93;128637;1098;22327;-78
2021/04/30 07:00:16;;;;;;;13.08;11.75;;;;;;;16.94;39.25;99777.59;128615;1098;22350;-76
2021/04/30 07:02:46;;;;;;;15.13;13.78;;;;;;;17.09;39.79;99773.72;128616;1094;24234;-78
2021/04/30 07:05:15;;;;;;;40.45;33.85;;;;;;;17.26;39.42;99766.75;128625;1098;22332;-78
2021/04/30 07:07:44;;;;;;;15.78;14.13;;;;;;;17.35;38.75;99778.72;128639;1096;22342;-78
2021/04/30 07:10:12;;;;;;;12.60;11.43;;;;;;;17.20;38.19;99777.52;128714;1095;22345;-78
2021/04/30 07:12:41;;;;;;;11.78;10.58;;;;;;;17.23;38.53;99775.20;128352;1095;24237;-77
2021/04/30 07:15:12;;;;;;;11.88;10.83;;;;;;;17.40;38.62;99775.39;128645;1095;24994;-80
2021/04/30 07:17:41;;;;;;;10.85;9.95;;;;;;;17.49;38.01;99781.21;128654;1095;24164;-78
2021/04/30 07:20:11;;;;;;;12.78;11.58;;;;;;;17.55;37.67;99775.78;128620;1095;22745;-77
2021/04/30 07:22:40;;;;;;;13.80;10.60;;;;;;;17.61;37.99;99782.88;128362;1096;24505;-78
2021/04/30 07:25:10;;;;;;;11.85;10.90;;;;;;;17.82;37.47;99775.41;128286;1098;22496;-77
2021/04/30 07:27:38;;;;;;;10.33;9.43;;;;;;;17.92;36.93;99785.55;128336;1097;22406;-78
2021/04/30 07:30:08;;;;;;;10.78;9.98;;;;;;;17.95;36.55;99783.23;128594;1098;22337;-77
2021/04/30 07:32:37;;;;;;;12.33;11.07;;;;;;;18.00;36.13;99787.90;128397;1096;22433;-78
2021/04/30 07:35:07;;;;;;;21.48;14.03;;;;;;;18.06;35.76;99784.28;128590;1098;22358;-78
2021/04/30 07:37:37;;;;;;;29.83;12.58;;;;;;;18.05;35.56;99782.66;128254;1101;22397;-78
2021/04/30 07:40:08;;;;;;;10.90;9.88;;;;;;;18.04;35.96;99781.85;128292;1101;22370;-77
2021/04/30 07:42:37;;;;;;;11.55;10.30;;;;;;;18.32;35.84;99777.68;128708;1100;23056;-77
2021/04/30 07:45:07;;;;;;;9.90;8.93;;;;;;;18.47;35.50;99780.71;128419;1101;22358;-77
2021/04/30 07:47:36;;;;;;;10.13;9.23;;;;;;;18.50;34.06;99788.27;128221;1101;22374;-77
2021/04/30 07:50:06;;;;;;;12.05;10.93;;;;;;;18.54;34.50;99793.97;128234;1097;22381;-78
2021/04/30 07:52:35;;;;;;;18.13;11.60;;;;;;;18.67;34.17;99783.02;127968;1100;23210;-78
2021/04/30 07:55:04;;;;;;;11.20;8.15;;;;;;;18.75;33.78;99793.38;128105;1101;22522;-77
2021/04/30 07:57:37;;;;;;;10.10;7.75;;;;;;;18.88;33.16;99795.00;128217;1101;22322;-77
2021/04/30 08:00:08;;;;;;;11.13;7.40;;;;;;;18.82;32.81;99801.28;128229;1098;24469;-77
2021/04/30 08:02:43;;;;;;;9.55;8.03;;;;;;;18.78;33.12;99792.91;128269;1101;22440;-77
2021/04/30 08:05:12;;;;;;;15.80;7.93;;;;;;;18.87;33.15;99803.27;128209;1098;22336;-78
2021/04/30 08:07:43;;;;;;;11.60;8.98;;;;;;;19.03;32.81;99808.70;128237;1098;22350;-78
2021/04/30 08:10:12;;;;;;;;;;;;;;;19.12;32.99;99801.10;128302;1098;22321;-76
2021/04/30 08:12:42;;;;;;;9.58;7.43;;;;;;;19.38;33.07;99813.13;128716;1098;21253;-78
2021/04/30 08:15:13;;;;;;;9.90;8.73;;;;;;;19.42;32.12;99813.47;128707;1097;22417;-77
2021/04/30 08:17:42;;;;;;;8.95;8.13;;;;;;;19.09;31.93;99824.86;128698;1095;22338;-77
2021/04/30 08:20:13;;;;;;;9.03;7.83;;;;;;;18.84;32.71;99823.28;128619;1098;22427;-78
2021/04/30 08:22:45;;;;;;;9.35;8.43;;;;;;;18.60;32.45;99816.30;128600;1098;22324;-79
2021/04/30 08:25:13;;;;;;;10.15;9.20;;;;;;;18.31;32.40;99824.19;128624;1097;22639;-78
2021/04/30 08:27:45;;;;;;;12.98;8.53;;;;;;;18.20;33.12;99817.80;128658;1098;22318;-78
2021/04/30 08:30:14;;;;;;;10.53;8.65;;;;;;;18.19;33.32;99813.47;128626;1097;22407;-79
2021/04/30 08:32:44;;;;;;;10.23;9.33;;;;;;;17.85;32.99;99817.70;128799;1094;24236;-78
2021/04/30 08:35:13;;;;;;;9.18;8.18;;;;;;;17.49;33.49;99819.41;128657;1094;24457;-77
2021/04/30 08:37:41;;;;;;;8.75;7.85;;;;;;;17.22;33.80;99815.45;128649;1097;22429;-77
2021/04/30 08:40:11;;;;;;;11.30;9.08;;;;;;;16.97;34.14;99821.70;128605;1095;24473;-77
2021/04/30 08:42:40;;;;;;;8.68;7.98;;;;;;;16.81;34.55;99822.29;128629;1097;24157;-79
2021/04/30 08:45:18;;;;;;;8.98;8.15;;;;;;;16.70;35.01;99823.81;128287;1098;22354;-77
2021/04/30 08:47:47;;;;;;;11.53;8.73;;;;;;;16.52;35.09;99821.09;128304;1098;22400;-78
2021/04/30 08:50:17;;;;;;;9.75;8.85;;;;;;;16.37;35.30;99834.78;128296;1098;22788;-78
2021/04/30 08:52:45;;;;;;;12.33;8.98;;;;;;;16.39;36.10;99840.69;128308;1097;24463;-77
2021/04/30 08:55:17;;;;;;;15.80;9.63;;;;;;;16.50;35.77;99852.52;128309;1096;24450;-76
2021/04/30 08:57:53;;;;;;;10.48;9.15;;;;;;;16.36;35.58;99836.64;128660;1098;22518;-78
2021/04/30 09:00:25;;;;;;;15.25;9.35;;;;;;;16.18;35.86;99847.22;128308;1094;24483;-79
2021/04/30 09:02:56;;;;;;;15.48;11.33;;;;;;;16.10;36.04;99839.51;128625;1095;22346;-78
2021/04/30 09:05:36;;;;;;;12.85;10.88;;;;;;;16.03;36.20;99844.88;128409;1095;22352;-78
2021/04/30 09:08:05;;;;;;;8.65;7.95;;;;;;;15.92;36.17;99841.04;128622;1098;22342;-78
2021/04/30 09:10:41;;;;;;;14.90;9.55;;;;;;;15.98;36.52;99855.36;128629;1098;22330;-78
2021/04/30 09:13:17;;;;;;;9.20;7.95;;;;;;;16.04;36.46;99851.02;128626;1095;22693;-78
2021/04/30 09:16:08;;;;;;;9.35;7.50;;;;;;;16.06;35.88;99852.45;128632;1098;22368;-75
2021/04/30 09:18:36;;;;;;;78.20;16.08;;;;;;;15.95;35.82;99858.45;128600;1098;22342;-76
2021/04/30 09:21:12;;;;;;;12.28;9.50;;;;;;;15.77;36.07;99864.51;128642;1098;22348;-79
2021/04/30 09:23:47;;;;;;;9.78;8.58;;;;;;;15.66;36.40;99873.12;128638;1098;22332;-77
2021/04/30 09:26:35;;;;;;;9.45;8.65;;;;;;;15.46;36.55;99871.39;128676;1094;22357;-78
2021/04/30 09:29:10;;;;;;;9.30;8.43;;;;;;;15.19;36.90;99878.63;128617;1098;22330;-79
2021/04/30 09:31:42;;;;;;;9.70;8.75;;;;;;;14.96;37.29;99878.27;128624;1098;22830;-79
2021/04/30 09:34:31;;;;;;;9.50;8.60;;;;;;;14.76;37.67;99880.97;128643;1098;22339;-79
2021/04/30 09:37:16;;;;;;;9.85;8.95;;;;;;;14.55;38.05;99884.67;128673;1094;22375;-79
2021/04/30 09:39:56;;;;;;;10.60;9.50;;;;;;;14.45;38.56;99895.67;128695;1098;22455;-79
2021/04/30 09:42:31;;;;;;;11.13;10.18;;;;;;;14.35;38.85;99885.45;128675;1098;22351;-79
2021/04/30 09:45:05;;;;;;;9.73;8.83;;;;;;;14.21;39.36;99889.13;128669;1095;24239;-79
2021/04/30 09:47:37;;;;;;;17.38;10.23;;;;;;;14.19;39.89;99891.16;128697;1098;22335;-79
2021/04/30 09:50:13;;;;;;;11.63;10.50;;;;;;;14.18;39.76;99891.37;128623;1098;22330;-80
2021/04/30 09:53:19;;;;;;;11.75;10.70;;;;;;;14.16;40.04;99898.70;128696;1098;22342;-80
2021/04/30 09:55:51;;;;;;;10.48;9.45;;;;;;;14.11;40.03;99899.33;128670;1098;22315;-80
2021/04/30 09:58:26;;;;;;;10.15;9.35;;;;;;;14.08;40.02;99897.88;128673;1098;22338;-80
2021/04/30 10:00:59;;;;;;;9.85;8.95;;;;;;;14.09;40.31;99894.23;128709;1098;22327;-80
2021/04/30 10:03:36;;;;;;;9.43;8.55;;;;;;;14.17;40.16;99897.71;128659;1098;22321;-80
2021/04/30 10:06:17;;;;;;;12.15;8.93;;;;;;;14.22;40.39;99892.59;128367;1098;22339;-80
2021/04/30 10:09:07;;;;;;;8.65;7.85;;;;;;;14.23;39.82;99888.91;128652;1095;24125;-80
2021/04/30 10:11:35;;;;;;;10.25;9.35;;;;;;;14.21;40.01;99888.31;128734;1098;22299;-80
2021/04/30 10:14:04;;;;;;;9.78;8.88;;;;;;;14.24;40.04;99888.72;128282;1100;22333;-79
2021/04/30 10:16:33;;;;;;;8.53;7.80;;;;;;;14.28;40.27;99895.25;128305;1100;22514;-80
2021/04/30 10:19:01;;;;;;;11.98;10.08;;;;;;;14.33;39.96;99892.02;128580;1098;22930;-79
2021/04/30 10:21:30;;;;;;;9.95;9.05;;;;;;;14.31;40.04;99894.85;128340;1096;24463;-78
2021/04/30 10:24:00;;;;;;;10.25;8.55;;;;;;;14.27;40.07;99898.13;128298;1098;22351;-80
2021/04/30 10:26:30;;;;;;;10.33;9.43;;;;;;;14.20;39.98;99903.44;128439;1098;22358;-80
2021/04/30 10:29:04;;;;;;;9.30;8.50;;;;;;;14.15;40.30;99905.05;128363;1098;22343;-80
2021/04/30 10:31:42;;;;;;;10.45;9.55;;;;;;;14.07;40.42;99912.19;128269;1098;22348;-78
2021/04/30 10:34:27;;;;;;;12.00;10.63;;;;;;;14.06;40.58;99905.25;128902;1098;22430;-79
2021/04/30 10:36:58;;;;;;;10.58;9.40;;;;;;;14.03;40.70;99912.81;128313;1100;22332;-78
2021/04/30 10:39:34;;;;;;;10.10;9.10;;;;;;;14.06;40.75;99907.91;128311;1097;24517;-79
2021/04/30 10:42:11;;;;;;;10.20;8.83;;;;;;;14.06;40.59;99913.22;128341;1098;23284;-79
2021/04/30 10:44:46;;;;;;;10.90;9.98;;;;;;;14.05;40.57;99913.41;128303;1098;22436;-75
2021/04/30 10:47:15;;;;;;;17.90;16.00;;;;;;;14.05;40.66;99913.41;128301;1100;22361;-76
2021/04/30 10:50:11;;;;;;;13.25;11.98;;;;;;;14.07;40.55;99914.84;128559;1098;22329;-75
2021/04/30 10:52:41;;;;;;;14.00;11.30;;;;;;;14.03;40.67;99918.94;128151;1098;24303;-75
2021/04/30 10:55:17;;;;;;;11.23;10.18;;;;;;;14.09;41.15;99910.16;128351;1098;22326;-74
2021/04/30 10:58:02;;;;;;;10.43;9.43;;;;;;;14.18;41.23;99925.90;128718;1098;22312;-75
2021/04/30 11:00:44;;;;;;;11.08;9.75;;;;;;;14.19;40.75;99916.91;128541;1098;22866;-75
2021/04/30 11:03:13;;;;;;;11.33;9.93;;;;;;;14.23;41.07;99920.78;128296;1101;22317;-75
2021/04/30 11:06:02;;;;;;;11.00;10.10;;;;;;;14.25;40.63;99926.73;128191;1101;22445;-76
2021/04/30 11:08:54;;;;;;;10.90;9.90;;;;;;;14.18;40.50;99924.06;128260;1098;23085;-74
2021/04/30 11:11:44;;;;;;;11.37;9.77;;;;;;;14.23;41.22;99920.78;128160;1101;22363;-75
2021/04/30 11:14:27;;;;;;;11.40;10.38;;;;;;;14.26;40.64;99923.88;128572;1097;25488;-74
2021/04/30 11:16:59;;;;;;;10.43;9.63;;;;;;;14.25;40.83;99924.88;127957;1102;22456;-74
2021/04/30 11:19:31;;;;;;;10.28;9.38;;;;;;;14.28;40.90;99921.02;127968;1103;22344;-76
2021/04/30 11:22:13;;;;;;;11.93;10.80;;;;;;;14.29;40.89;99923.45;128242;1101;22362;-73
2021/04/30 11:24:51;;;;;;;11.78;10.60;;;;;;;14.21;41.12;99925.50;128183;1100;22462;-75
2021/04/30 11:27:20;;;;;;;11.77;10.77;;;;;;;14.16;41.36;99922.61;127951;1098;22367;-75
2021/04/30 11:29:50;;;;;;;12.13;10.90;;;;;;;14.19;41.27;99923.03;128268;1097;22355;-75
2021/04/30 11:32:28;;;;;;;12.70;11.63;;;;;;;14.20;41.58;99940.63;128265;1098;22336;-74